createdAt,value
2023-01-13T00:01:46.514Z,2.46
2023-01-13T00:04:48.612Z,2.43
2023-01-13T00:08:03.532Z,2.40
2023-01-13T00:11:12.552Z,2.32
2023-01-13T00:14:27.623Z,2.30
2023-01-13T00:17:36.908Z,2.23
2023-01-13T00:20:52.536Z,2.17
2023-01-13T00:23:55.824Z,2.10
2023-01-13T00:27:10.527Z,2.08
2023-01-13T00:30:25.555Z,2.05
2023-01-13T00:33:35.514Z,2.04
2023-01-13T00:36:50.541Z,2.01
2023-01-13T00:39:59.195Z,1.99
2023-01-13T00:43:07.542Z,1.91
2023-01-13T00:46:25.556Z,1.79
2023-01-13T00:49:40.545Z,1.87
2023-01-13T00:52:49.524Z,1.87
2023-01-13T00:56:09.536Z,1.87
2023-01-13T00:59:18.263Z,1.87
2023-01-13T01:02:26.606Z,1.87
2023-01-13T01:05:41.543Z,1.84
2023-01-13T01:08:50.497Z,1.83
2023-01-13T01:12:06.539Z,1.82
2023-01-13T01:15:09.269Z,1.81
2023-01-13T01:18:24.520Z,1.79
2023-01-13T01:21:41.517Z,1.80
2023-01-13T01:24:50.204Z,1.78
2023-01-13T01:27:58.505Z,1.72
2023-01-13T01:31:09.207Z,1.81
2023-01-13T01:34:24.506Z,1.82
2023-01-13T01:37:39.538Z,1.84
2023-01-13T01:40:48.886Z,1.85
2023-01-13T01:44:54.510Z,1.89
2023-01-13T01:48:12.514Z,1.83
2023-01-13T01:51:21.523Z,1.57
2023-01-13T01:54:40.887Z,1.91
2023-01-13T01:58:04.520Z,1.91
2023-01-13T02:01:06.612Z,1.91
2023-01-13T02:04:27.520Z,1.89
2023-01-13T02:07:33.490Z,1.89
2023-01-13T02:10:52.508Z,1.93
2023-01-13T02:13:54.762Z,1.93
2023-01-13T02:17:27.508Z,1.94
2023-01-13T02:20:40.923Z,1.95
2023-01-13T02:24:40.514Z,1.95
2023-01-13T02:28:26.179Z,1.96
2023-01-13T02:31:46.570Z,1.97
2023-01-13T02:35:32.318Z,2.04
2023-01-13T02:39:03.487Z,2.06
2023-01-13T02:42:41.511Z,2.07
2023-01-13T02:46:08.187Z,2.10
2023-01-13T02:49:34.516Z,2.13
2023-01-13T02:52:49.495Z,2.17
2023-01-13T02:56:07.511Z,2.18
2023-01-13T02:59:18.772Z,2.21
2023-01-13T03:02:28.469Z,2.22
2023-01-13T03:05:45.434Z,2.23
2023-01-13T03:09:00.969Z,2.22
2023-01-13T03:12:19.433Z,2.26
2023-01-13T03:16:05.425Z,2.25
2023-01-13T03:19:50.674Z,2.25
2023-01-13T03:23:27.413Z,2.29
2023-01-13T03:26:51.463Z,2.30
2023-01-13T03:30:15.427Z,2.30
2023-01-13T03:33:33.405Z,2.32
2023-01-13T03:36:44.164Z,2.32
2023-01-13T03:40:04.433Z,2.33
2023-01-13T03:43:19.386Z,2.35
2023-01-13T03:46:45.403Z,2.35
2023-01-13T03:50:01.343Z,2.34
2023-01-13T03:53:39.434Z,2.37
2023-01-13T03:57:08.608Z,2.36
2023-01-13T04:00:19.576Z,2.41
2023-01-13T04:03:51.406Z,2.36
2023-01-13T04:07:38.427Z,2.42
2023-01-13T04:11:04.778Z,2.46
2023-01-13T04:14:17.404Z,2.44
2023-01-13T04:17:32.708Z,2.48
2023-01-13T04:20:49.412Z,2.45
2023-01-13T04:23:51.282Z,2.46
2023-01-13T04:27:06.435Z,2.45
2023-01-13T04:30:15.410Z,2.42
2023-01-13T04:33:30.410Z,2.45
2023-01-13T04:36:45.391Z,2.42
2023-01-13T04:39:47.347Z,2.36
2023-01-13T04:43:02.399Z,2.35
2023-01-13T04:46:17.453Z,2.41
2023-01-13T04:49:32.399Z,2.39
2023-01-13T04:52:47.407Z,2.36
2023-01-13T04:55:49.274Z,2.35
2023-01-13T04:59:04.421Z,2.34
2023-01-13T05:02:19.448Z,2.36
2023-01-13T05:05:28.438Z,2.34
2023-01-13T05:08:37.233Z,2.32
2023-01-13T05:11:46.447Z,2.33
2023-01-13T05:15:08.388Z,2.29
2023-01-13T05:18:24.424Z,2.26
2023-01-13T05:21:39.465Z,2.24
2023-01-13T05:24:54.399Z,2.24
2023-01-13T05:28:09.387Z,2.22
2023-01-13T05:31:24.443Z,2.21
2023-01-13T05:34:33.404Z,2.19
2023-01-13T05:37:49.400Z,2.18
2023-01-13T05:40:51.303Z,2.13
2023-01-13T05:44:06.433Z,2.08
2023-01-13T05:47:14.404Z,2.01
2023-01-13T05:50:22.992Z,2.00
2023-01-13T05:53:32.392Z,1.95
2023-01-13T05:56:41.092Z,1.95
2023-01-13T05:59:49.425Z,1.94
2023-01-13T06:03:04.501Z,1.93
2023-01-13T06:06:06.549Z,1.92
2023-01-13T06:09:21.414Z,1.93
2023-01-13T06:12:33.941Z,1.94
2023-01-13T06:15:42.403Z,1.96
2023-01-13T06:18:57.663Z,1.97
2023-01-13T06:22:12.625Z,1.99
2023-01-13T06:25:53.388Z,1.97
2023-01-13T06:29:08.412Z,1.98
2023-01-13T06:32:20.536Z,2.01
2023-01-13T06:35:39.383Z,2.02
2023-01-13T06:38:51.906Z,2.03
2023-01-13T06:42:06.420Z,2.07
2023-01-13T06:45:15.023Z,2.11
2023-01-13T06:48:24.395Z,2.14
2023-01-13T06:51:33.017Z,2.05
2023-01-13T06:54:47.396Z,2.17
2023-01-13T06:58:01.398Z,2.18
2023-01-13T07:01:10.094Z,2.21
2023-01-13T07:04:25.361Z,2.22
2023-01-13T07:07:40.210Z,2.27
2023-01-13T07:10:57.416Z,2.29
2023-01-13T07:14:06.385Z,2.24
2023-01-13T07:17:21.716Z,2.38
2023-01-13T07:20:31.567Z,2.40
2023-01-13T07:23:48.399Z,2.36
2023-01-13T07:27:00.092Z,2.51
2023-01-13T07:30:19.344Z,2.59
2023-01-13T07:33:29.293Z,2.64
2023-01-13T07:36:37.395Z,2.69
2023-01-13T07:39:52.406Z,2.69
2023-01-13T07:43:07.450Z,2.73
2023-01-13T07:46:25.334Z,2.79
2023-01-13T07:49:34.178Z,2.88
2023-01-13T07:52:42.394Z,2.97
2023-01-13T07:55:55.905Z,3.01
2023-01-13T07:59:07.646Z,3.07
2023-01-13T08:02:17.423Z,3.10
2023-01-13T08:05:32.410Z,3.16
2023-01-13T08:08:41.027Z,3.18
2023-01-13T08:11:55.354Z,3.19
2023-01-13T08:15:04.836Z,3.18
2023-01-13T08:18:27.383Z,3.27
2023-01-13T08:21:36.175Z,3.28
2023-01-13T08:24:51.373Z,3.27
2023-01-13T08:27:53.944Z,3.20
2023-01-13T08:31:11.532Z,3.27
2023-01-13T08:34:13.468Z,3.33
2023-01-13T08:37:28.383Z,3.35
2023-01-13T08:40:31.364Z,3.38
2023-01-13T08:43:46.381Z,3.40
2023-01-13T08:46:55.371Z,3.31
2023-01-13T08:50:05.264Z,3.23
2023-01-13T08:53:14.375Z,3.42
2023-01-13T08:56:29.356Z,3.35
2023-01-13T08:59:40.101Z,3.30
2023-01-13T09:02:49.838Z,3.21
2023-01-13T09:06:00.263Z,3.21
2023-01-13T09:09:15.895Z,3.20
2023-01-13T09:12:24.979Z,3.26
2023-01-13T09:15:33.455Z,3.22
2023-01-13T09:18:55.393Z,3.13
2023-01-13T09:22:04.354Z,3.16
2023-01-13T09:25:19.418Z,3.09
2023-01-13T09:28:22.061Z,2.94
2023-01-13T09:31:37.393Z,2.94
2023-01-13T09:34:39.555Z,3.03
2023-01-13T09:37:54.399Z,2.97
2023-01-13T09:40:56.652Z,2.84
2023-01-13T09:44:23.410Z,3.03
2023-01-13T09:48:05.067Z,3.13
2023-01-13T09:51:21.426Z,3.12
2023-01-13T09:54:50.398Z,3.10
2023-01-13T09:57:52.992Z,3.12
2023-01-13T10:02:06.358Z,3.07
2023-01-13T10:05:47.398Z,3.14
2023-01-13T10:08:49.928Z,3.08
2023-01-13T10:12:07.363Z,3.04
2023-01-13T10:15:19.878Z,3.08
2023-01-13T10:18:41.370Z,3.16
2023-01-13T10:22:13.336Z,3.04
2023-01-13T10:25:37.381Z,3.24
2023-01-13T10:28:39.417Z,3.20
2023-01-13T10:31:54.396Z,3.25
2023-01-13T10:35:09.381Z,3.30
2023-01-13T10:38:28.353Z,3.27
2023-01-13T10:41:37.330Z,3.31
2023-01-13T10:45:06.387Z,3.36
2023-01-13T10:48:21.424Z,3.37
2023-01-13T10:51:39.100Z,3.42
2023-01-13T10:54:59.376Z,3.41
2023-01-13T10:58:28.611Z,3.46
2023-01-13T11:01:43.572Z,3.54
2023-01-13T11:05:01.414Z,3.52
2023-01-13T11:08:18.890Z,3.50
2023-01-13T11:11:41.417Z,3.59
2023-01-13T11:14:51.538Z,3.57
2023-01-13T11:18:31.365Z,3.65
2023-01-13T11:22:04.404Z,3.51
2023-01-13T11:25:16.325Z,3.62
2023-01-13T11:28:50.375Z,3.59
2023-01-13T11:31:56.317Z,3.65
2023-01-13T11:35:23.393Z,3.69
2023-01-13T11:38:54.369Z,3.62
2023-01-13T11:42:12.971Z,3.63
2023-01-13T11:45:48.392Z,3.78
2023-01-13T11:49:03.346Z,3.86
2023-01-13T11:52:33.377Z,3.87
2023-01-13T11:56:07.362Z,3.90
2023-01-13T11:59:15.895Z,3.80
2023-01-13T12:02:43.347Z,3.88
2023-01-13T12:06:01.394Z,3.89
2023-01-13T12:09:14.228Z,3.87
2023-01-13T12:13:12.392Z,3.87
2023-01-13T12:16:29.751Z,3.92
2023-01-13T12:19:45.355Z,3.89
2023-01-13T12:22:58.898Z,3.93
2023-01-13T12:26:17.398Z,3.82
2023-01-13T12:29:44.374Z,3.84
2023-01-13T12:33:03.385Z,3.84
2023-01-13T12:36:36.465Z,3.89
2023-01-13T12:40:19.375Z,3.84
2023-01-13T12:43:31.347Z,3.89
2023-01-13T12:46:45.883Z,3.86
2023-01-13T12:50:29.346Z,4.12
2023-01-13T12:53:32.735Z,4.13
2023-01-13T12:56:51.332Z,4.17
2023-01-13T13:00:11.392Z,4.18
2023-01-13T13:03:37.331Z,4.15
2023-01-13T13:07:13.335Z,4.19
2023-01-13T13:10:31.855Z,4.22
2023-01-13T13:13:53.349Z,4.15
2023-01-13T13:16:55.884Z,4.32
2023-01-13T13:20:55.374Z,4.35
2023-01-13T13:24:11.377Z,4.32
2023-01-13T13:27:44.543Z,4.41
2023-01-13T13:31:14.401Z,4.39
2023-01-13T13:34:45.355Z,4.45
2023-01-13T13:38:17.342Z,4.52
2023-01-13T13:41:26.686Z,4.59
2023-01-13T13:44:48.347Z,4.59
2023-01-13T13:47:57.084Z,4.53
2023-01-13T13:51:09.348Z,4.57
2023-01-13T13:54:28.334Z,4.55
2023-01-13T13:57:46.464Z,4.57
2023-01-13T14:00:56.908Z,4.61
2023-01-13T14:04:31.505Z,4.66
2023-01-13T14:07:47.533Z,4.71
2023-01-13T14:11:04.325Z,4.67
2023-01-13T14:14:26.491Z,4.58
2023-01-13T14:17:41.456Z,4.75
2023-01-13T14:21:18.413Z,4.76
2023-01-13T14:24:34.284Z,4.77
2023-01-13T14:27:50.277Z,4.79
2023-01-13T14:30:53.931Z,4.82
2023-01-13T14:34:31.752Z,4.86
2023-01-13T14:37:48.319Z,4.84
2023-01-13T14:40:57.708Z,4.74
2023-01-13T14:44:08.306Z,4.60
2023-01-13T14:47:35.272Z,4.70
2023-01-13T14:50:44.263Z,4.67
2023-01-13T14:54:04.239Z,4.65
2023-01-13T14:57:33.307Z,4.60
2023-01-13T15:00:42.325Z,4.60
2023-01-13T15:03:57.356Z,4.59
2023-01-13T15:07:07.260Z,4.58
2023-01-13T15:10:30.255Z,4.62
2023-01-13T15:13:53.596Z,4.62
2023-01-13T15:17:02.276Z,4.68
2023-01-13T15:20:20.331Z,4.68
2023-01-13T15:23:28.961Z,4.61
2023-01-13T15:26:40.262Z,4.63
2023-01-13T15:29:55.331Z,4.65
2023-01-13T15:33:05.316Z,4.61
2023-01-13T15:36:41.379Z,4.71
2023-01-13T15:39:50.269Z,4.67
2023-01-13T15:42:59.397Z,4.68
2023-01-13T15:46:21.288Z,4.71
2023-01-13T15:49:40.250Z,4.69
2023-01-13T15:52:50.255Z,4.68
2023-01-13T15:55:59.405Z,4.67
2023-01-13T15:59:08.260Z,4.63
2023-01-13T16:02:17.324Z,4.66
2023-01-13T16:05:26.241Z,4.56
2023-01-13T16:08:34.919Z,4.69
2023-01-13T16:11:43.252Z,4.67
2023-01-13T16:14:52.048Z,4.71
2023-01-13T16:18:08.248Z,4.74
2023-01-13T16:21:16.780Z,4.72
2023-01-13T16:24:34.280Z,4.70
2023-01-13T16:27:49.291Z,4.76
2023-01-13T16:30:57.965Z,4.72
2023-01-13T16:34:12.304Z,4.73
2023-01-13T16:37:31.356Z,4.76
2023-01-13T16:40:36.348Z,4.70
2023-01-13T16:43:53.328Z,4.76
2023-01-13T16:46:55.279Z,4.71
2023-01-13T16:50:10.310Z,4.65
2023-01-13T16:53:19.243Z,4.70
2023-01-13T16:56:36.304Z,4.65
2023-01-13T16:59:51.338Z,4.68
2023-01-13T17:02:53.344Z,4.69
2023-01-13T17:06:08.345Z,4.69
2023-01-13T17:09:28.598Z,4.65
2023-01-13T17:12:37.354Z,4.63
2023-01-13T17:15:52.337Z,4.64
2023-01-13T17:19:14.380Z,4.61
2023-01-13T17:22:23.577Z,4.62
2023-01-13T17:25:40.823Z,4.56
2023-01-13T17:28:46.475Z,4.56
2023-01-13T17:32:02.396Z,4.56
2023-01-13T17:35:11.086Z,4.54
2023-01-13T17:38:20.477Z,4.56
2023-01-13T17:41:29.171Z,4.56
2023-01-13T17:44:37.348Z,4.51
2023-01-13T17:47:52.643Z,4.61
2023-01-13T17:51:02.296Z,4.64
2023-01-13T17:54:15.511Z,4.53
2023-01-13T17:57:24.329Z,4.65
2023-01-13T18:00:39.651Z,4.64
2023-01-13T18:03:48.832Z,4.63
2023-01-13T18:07:03.349Z,4.64
2023-01-13T18:10:19.347Z,4.64
2023-01-13T18:13:28.804Z,4.68
2023-01-13T18:16:44.329Z,4.72
2023-01-13T18:19:53.762Z,4.74
2023-01-13T18:23:08.780Z,4.72
2023-01-13T18:26:28.348Z,4.76
2023-01-13T18:29:37.488Z,4.79
2023-01-13T18:32:52.330Z,4.84
2023-01-13T18:36:06.805Z,4.84
2023-01-13T18:39:17.336Z,4.86
2023-01-13T18:42:26.550Z,4.88
2023-01-13T18:45:37.478Z,4.91
2023-01-13T18:48:53.345Z,4.91
2023-01-13T18:52:10.313Z,4.91
2023-01-13T18:55:19.296Z,4.90
2023-01-13T18:58:34.700Z,4.85
2023-01-13T19:01:50.466Z,4.90
2023-01-13T19:04:52.575Z,4.91
2023-01-13T19:08:08.850Z,4.91
2023-01-13T19:11:23.308Z,4.93
2023-01-13T19:14:32.328Z,4.95
2023-01-13T19:17:41.789Z,4.93
2023-01-13T19:20:53.296Z,4.96
2023-01-13T19:24:02.109Z,4.98
2023-01-13T19:27:20.527Z,4.98
2023-01-13T19:30:30.336Z,5.01
2023-01-13T19:33:47.574Z,4.98
2023-01-13T19:36:59.528Z,5.03
2023-01-13T19:40:12.032Z,5.04
2023-01-13T19:43:28.318Z,5.04
2023-01-13T19:46:47.532Z,4.95
2023-01-13T19:49:56.381Z,5.04
2023-01-13T19:53:05.426Z,5.02
2023-01-13T19:56:14.602Z,5.04
2023-01-13T19:59:23.671Z,4.78
2023-01-13T20:02:40.509Z,5.08
2023-01-13T20:05:50.591Z,5.08
2023-01-13T20:08:59.516Z,5.12
2023-01-13T20:12:10.940Z,5.14
2023-01-13T20:15:20.382Z,5.17
2023-01-13T20:18:36.280Z,5.13
2023-01-13T20:21:44.964Z,5.16
2023-01-13T20:25:01.374Z,5.14
2023-01-13T20:28:05.079Z,5.08
2023-01-13T20:31:22.364Z,5.07
2023-01-13T20:34:32.076Z,5.05
2023-01-13T20:37:43.729Z,5.03
2023-01-13T20:41:02.051Z,5.03
2023-01-13T20:44:11.601Z,5.01
2023-01-13T20:47:28.366Z,4.98
2023-01-13T20:50:44.710Z,4.93
2023-01-13T20:54:03.407Z,4.93
2023-01-13T20:57:19.320Z,4.93
2023-01-13T21:00:34.395Z,4.91
2023-01-13T21:03:46.113Z,4.91
2023-01-13T21:07:01.340Z,4.90
2023-01-13T21:10:10.426Z,4.93
2023-01-13T21:13:19.567Z,4.94
2023-01-13T21:16:28.421Z,4.94
2023-01-13T21:19:37.044Z,4.95
2023-01-13T21:22:59.297Z,4.94
2023-01-13T21:26:01.206Z,4.94
2023-01-13T21:29:17.400Z,4.89
2023-01-13T21:32:32.305Z,4.86
2023-01-13T21:35:47.342Z,4.84
2023-01-13T21:38:58.145Z,4.87
2023-01-13T21:42:06.321Z,4.88
2023-01-13T21:45:21.293Z,4.91
2023-01-13T21:48:30.276Z,4.92
2023-01-13T21:51:45.299Z,4.94
2023-01-13T21:54:53.313Z,4.92
2023-01-13T21:58:13.548Z,4.95
2023-01-13T22:01:28.442Z,4.95
2023-01-13T22:04:43.277Z,4.99
2023-01-13T22:07:52.429Z,4.95
2023-01-13T22:11:09.284Z,4.97
2023-01-13T22:14:17.889Z,4.84
2023-01-13T22:17:28.301Z,4.96
2023-01-13T22:20:44.571Z,4.97
2023-01-13T22:23:54.278Z,4.94
2023-01-13T22:27:09.291Z,4.97
2023-01-13T22:30:20.161Z,4.91
2023-01-13T22:33:29.294Z,5.02
2023-01-13T22:36:44.283Z,5.03
2023-01-13T22:39:52.910Z,5.06
2023-01-13T22:43:01.279Z,5.07
2023-01-13T22:46:18.316Z,5.06
2023-01-13T22:49:27.044Z,5.09
2023-01-13T22:52:43.289Z,5.09
2023-01-13T22:55:53.982Z,5.10
2023-01-13T22:59:11.308Z,5.07
2023-01-13T23:02:26.274Z,5.09
2023-01-13T23:05:35.296Z,5.09
2023-01-13T23:08:51.492Z,5.02
2023-01-13T23:12:00.327Z,5.12
2023-01-13T23:15:16.269Z,5.15
2023-01-13T23:18:18.322Z,5.14
2023-01-13T23:21:36.289Z,5.12
2023-01-13T23:24:44.335Z,5.08
2023-01-13T23:27:53.320Z,5.04
2023-01-13T23:31:01.345Z,4.99
2023-01-13T23:34:23.299Z,4.93
2023-01-13T23:37:38.338Z,4.93
2023-01-13T23:40:52.285Z,4.93
2023-01-13T23:44:08.307Z,4.94
2023-01-13T23:47:16.293Z,4.88
2023-01-13T23:50:27.059Z,4.88
2023-01-13T23:53:40.222Z,4.90
2023-01-13T23:56:52.032Z,4.93
